sensor_id;sensor_type;location;lat;lon;timestamp;temperature;humidity
66328;DHT22;53133;52.862;6.602;2023-07-02T00:02:23;17.00;99.90
66328;DHT22;53133;52.862;6.602;2023-07-02T00:04:49;17.00;99.90
66328;DHT22;53133;52.862;6.602;2023-07-02T00:07:14;16.90;99.90
66328;DHT22;53133;52.862;6.602;2023-07-02T00:09:40;16.90;99.90
66328;DHT22;53133;52.862;6.602;2023-07-02T00:12:06;16.90;99.90
66328;DHT22;53133;52.862;6.602;2023-07-02T00:14:32;16.90;99.90
66328;DHT22;53133;52.862;6.602;2023-07-02T00:16:58;16.90;99.90
66328;DHT22;53133;52.862;6.602;2023-07-02T00:19:23;16.90;99.90
66328;DHT22;53133;52.862;6.602;2023-07-02T00:21:49;16.90;99.90
66328;DHT22;53133;52.862;6.602;2023-07-02T00:24:15;16.90;99.90
66328;DHT22;53133;52.862;6.602;2023-07-02T00:26:41;16.80;99.90
66328;DHT22;53133;52.862;6.602;2023-07-02T00:29:08;16.80;99.90
66328;DHT22;53133;52.862;6.602;2023-07-02T00:31:35;16.90;99.90
66328;DHT22;53133;52.862;6.602;2023-07-02T00:34:01;16.80;99.90
66328;DHT22;53133;52.862;6.602;2023-07-02T00:36:30;16.80;99.90
66328;DHT22;53133;52.862;6.602;2023-07-02T00:38:56;16.90;99.90
66328;DHT22;53133;52.862;6.602;2023-07-02T00:41:22;16.90;99.90
66328;DHT22;53133;52.862;6.602;2023-07-02T00:43:48;16.80;99.90
66328;DHT22;53133;52.862;6.602;2023-07-02T00:46:15;16.80;99.90
66328;DHT22;53133;52.862;6.602;2023-07-02T00:48:54;16.80;99.90
66328;DHT22;53133;52.862;6.602;2023-07-02T00:51:22;16.80;99.90
66328;DHT22;53133;52.862;6.602;2023-07-02T00:53:50;16.80;99.90
66328;DHT22;53133;52.862;6.602;2023-07-02T00:56:21;16.70;99.90
66328;DHT22;53133;52.862;6.602;2023-07-02T00:58:49;16.60;99.90
66328;DHT22;53133;52.862;6.602;2023-07-02T01:01:17;16.60;99.90
66328;DHT22;53133;52.862;6.602;2023-07-02T01:06:20;16.50;99.90
66328;DHT22;53133;52.862;6.602;2023-07-02T01:08:54;16.40;99.90
66328;DHT22;53133;52.862;6.602;2023-07-02T01:11:22;16.40;99.90
66328;DHT22;53133;52.862;6.602;2023-07-02T01:13:49;16.30;99.90
66328;DHT22;53133;52.862;6.602;2023-07-02T01:16:15;16.30;99.90
66328;DHT22;53133;52.862;6.602;2023-07-02T01:18:43;16.20;99.90
66328;DHT22;53133;52.862;6.602;2023-07-02T01:21:09;16.10;99.90
66328;DHT22;53133;52.862;6.602;2023-07-02T01:23:34;16.10;99.90
66328;DHT22;53133;52.862;6.602;2023-07-02T01:26:00;16.10;99.90
66328;DHT22;53133;52.862;6.602;2023-07-02T01:28:35;16.00;99.90
66328;DHT22;53133;52.862;6.602;2023-07-02T01:31:03;16.00;99.90
66328;DHT22;53133;52.862;6.602;2023-07-02T01:33:28;16.00;99.90
66328;DHT22;53133;52.862;6.602;2023-07-02T01:35:57;16.00;99.90
66328;DHT22;53133;52.862;6.602;2023-07-02T01:38:22;16.00;99.90
66328;DHT22;53133;52.862;6.602;2023-07-02T01:40:48;16.00;99.90
66328;DHT22;53133;52.862;6.602;2023-07-02T01:43:14;15.90;99.90
66328;DHT22;53133;52.862;6.602;2023-07-02T01:45:41;15.90;99.90
66328;DHT22;53133;52.862;6.602;2023-07-02T01:48:07;15.90;99.90
66328;DHT22;53133;52.862;6.602;2023-07-02T01:50:33;15.80;99.90
66328;DHT22;53133;52.862;6.602;2023-07-02T01:52:58;15.80;99.90
66328;DHT22;53133;52.862;6.602;2023-07-02T01:55:24;15.80;99.90
66328;DHT22;53133;52.862;6.602;2023-07-02T01:57:50;15.80;99.90
66328;DHT22;53133;52.862;6.602;2023-07-02T02:00:16;15.80;99.90
66328;DHT22;53133;52.862;6.602;2023-07-02T02:02:43;15.70;99.90
66328;DHT22;53133;52.862;6.602;2023-07-02T02:05:09;15.70;99.90
66328;DHT22;53133;52.862;6.602;2023-07-02T02:07:36;15.70;99.90
66328;DHT22;53133;52.862;6.602;2023-07-02T02:10:02;15.60;99.90
66328;DHT22;53133;52.862;6.602;2023-07-02T02:12:29;15.60;99.90
66328;DHT22;53133;52.862;6.602;2023-07-02T02:14:55;15.60;99.90
66328;DHT22;53133;52.862;6.602;2023-07-02T02:17:21;15.50;99.90
66328;DHT22;53133;52.862;6.602;2023-07-02T02:19:47;15.50;99.90
66328;DHT22;53133;52.862;6.602;2023-07-02T02:22:12;15.50;99.90
66328;DHT22;53133;52.862;6.602;2023-07-02T02:24:38;15.50;99.90
66328;DHT22;53133;52.862;6.602;2023-07-02T02:27:04;15.50;99.90
66328;DHT22;53133;52.862;6.602;2023-07-02T02:29:29;15.50;99.90
66328;DHT22;53133;52.862;6.602;2023-07-02T02:31:55;15.50;99.90
66328;DHT22;53133;52.862;6.602;2023-07-02T02:34:20;15.50;99.90
66328;DHT22;53133;52.862;6.602;2023-07-02T02:36:46;15.50;99.90
66328;DHT22;53133;52.862;6.602;2023-07-02T02:39:12;15.50;99.90
66328;DHT22;53133;52.862;6.602;2023-07-02T02:41:39;15.50;99.90
66328;DHT22;53133;52.862;6.602;2023-07-02T02:44:05;15.50;99.90
66328;DHT22;53133;52.862;6.602;2023-07-02T02:46:31;15.40;99.90
66328;DHT22;53133;52.862;6.602;2023-07-02T02:48:56;15.40;99.90
66328;DHT22;53133;52.862;6.602;2023-07-02T02:51:22;15.40;99.90
66328;DHT22;53133;52.862;6.602;2023-07-02T02:53:48;15.30;99.90
66328;DHT22;53133;52.862;6.602;2023-07-02T02:56:13;15.30;99.90
66328;DHT22;53133;52.862;6.602;2023-07-02T02:58:40;15.30;99.90
66328;DHT22;53133;52.862;6.602;2023-07-02T03:01:05;15.30;99.90
66328;DHT22;53133;52.862;6.602;2023-07-02T03:03:39;15.30;99.90
66328;DHT22;53133;52.862;6.602;2023-07-02T03:06:05;15.30;99.90
66328;DHT22;53133;52.862;6.602;2023-07-02T03:08:31;15.20;99.90
66328;DHT22;53133;52.862;6.602;2023-07-02T03:10:57;15.30;99.90
66328;DHT22;53133;52.862;6.602;2023-07-02T03:13:22;15.30;99.90
66328;DHT22;53133;52.862;6.602;2023-07-02T03:15:48;15.30;99.90
66328;DHT22;53133;52.862;6.602;2023-07-02T03:18:14;15.30;99.90
66328;DHT22;53133;52.862;6.602;2023-07-02T03:20:39;15.30;99.90
66328;DHT22;53133;52.862;6.602;2023-07-02T03:23:05;15.30;99.90
66328;DHT22;53133;52.862;6.602;2023-07-02T03:25:30;15.30;99.90
66328;DHT22;53133;52.862;6.602;2023-07-02T03:27:56;15.30;99.90
66328;DHT22;53133;52.862;6.602;2023-07-02T03:30:22;15.30;99.90
66328;DHT22;53133;52.862;6.602;2023-07-02T03:32:47;15.30;99.90
66328;DHT22;53133;52.862;6.602;2023-07-02T03:35:13;15.30;99.90
66328;DHT22;53133;52.862;6.602;2023-07-02T03:37:39;15.30;99.90
66328;DHT22;53133;52.862;6.602;2023-07-02T03:40:07;15.30;99.90
66328;DHT22;53133;52.862;6.602;2023-07-02T03:42:33;15.30;99.90
66328;DHT22;53133;52.862;6.602;2023-07-02T03:44:59;15.30;99.90
66328;DHT22;53133;52.862;6.602;2023-07-02T03:47:25;15.30;99.90
66328;DHT22;53133;52.862;6.602;2023-07-02T03:49:50;15.30;99.90
66328;DHT22;53133;52.862;6.602;2023-07-02T03:52:16;15.30;99.90
66328;DHT22;53133;52.862;6.602;2023-07-02T03:54:42;15.20;99.90
66328;DHT22;53133;52.862;6.602;2023-07-02T03:57:07;15.20;99.90
66328;DHT22;53133;52.862;6.602;2023-07-02T03:59:34;15.20;99.90
66328;DHT22;53133;52.862;6.602;2023-07-02T04:01:59;15.20;99.90
66328;DHT22;53133;52.862;6.602;2023-07-02T04:04:25;15.20;99.90
66328;DHT22;53133;52.862;6.602;2023-07-02T04:06:50;15.10;99.90
66328;DHT22;53133;52.862;6.602;2023-07-02T04:09:16;15.10;99.90
66328;DHT22;53133;52.862;6.602;2023-07-02T04:11:43;15.10;99.90
66328;DHT22;53133;52.862;6.602;2023-07-02T04:14:09;15.10;99.90
66328;DHT22;53133;52.862;6.602;2023-07-02T04:16:35;15.10;99.90
66328;DHT22;53133;52.862;6.602;2023-07-02T04:19:00;15.10;99.90
66328;DHT22;53133;52.862;6.602;2023-07-02T04:21:26;15.10;99.90
66328;DHT22;53133;52.862;6.602;2023-07-02T04:23:51;15.10;99.90
66328;DHT22;53133;52.862;6.602;2023-07-02T04:26:17;15.10;99.90
66328;DHT22;53133;52.862;6.602;2023-07-02T04:28:43;15.10;99.90
66328;DHT22;53133;52.862;6.602;2023-07-02T04:31:09;15.10;99.90
66328;DHT22;53133;52.862;6.602;2023-07-02T04:33:34;15.20;99.90
66328;DHT22;53133;52.862;6.602;2023-07-02T04:36:04;15.20;99.90
66328;DHT22;53133;52.862;6.602;2023-07-02T04:38:30;15.20;99.90
66328;DHT22;53133;52.862;6.602;2023-07-02T04:40:55;15.20;99.90
66328;DHT22;53133;52.862;6.602;2023-07-02T04:43:27;15.20;99.90
66328;DHT22;53133;52.862;6.602;2023-07-02T04:45:55;15.20;99.90
66328;DHT22;53133;52.862;6.602;2023-07-02T04:48:21;15.30;99.90
66328;DHT22;53133;52.862;6.602;2023-07-02T04:50:46;15.20;99.90
66328;DHT22;53133;52.862;6.602;2023-07-02T04:53:12;15.30;99.90
66328;DHT22;53133;52.862;6.602;2023-07-02T04:55:38;15.30;99.90
66328;DHT22;53133;52.862;6.602;2023-07-02T04:58:03;15.30;99.90
66328;DHT22;53133;52.862;6.602;2023-07-02T05:00:29;15.30;99.90
66328;DHT22;53133;52.862;6.602;2023-07-02T05:02:54;15.30;99.90
66328;DHT22;53133;52.862;6.602;2023-07-02T05:05:20;15.30;99.90
66328;DHT22;53133;52.862;6.602;2023-07-02T05:07:46;15.30;99.90
66328;DHT22;53133;52.862;6.602;2023-07-02T05:10:11;15.40;99.90
66328;DHT22;53133;52.862;6.602;2023-07-02T05:12:37;15.40;99.90
66328;DHT22;53133;52.862;6.602;2023-07-02T05:15:03;15.40;99.90
66328;DHT22;53133;52.862;6.602;2023-07-02T05:17:28;15.40;99.90
66328;DHT22;53133;52.862;6.602;2023-07-02T05:19:54;15.50;99.90
66328;DHT22;53133;52.862;6.602;2023-07-02T05:22:19;15.50;99.90
66328;DHT22;53133;52.862;6.602;2023-07-02T05:24:45;15.50;99.90
66328;DHT22;53133;52.862;6.602;2023-07-02T05:27:11;15.50;99.90
66328;DHT22;53133;52.862;6.602;2023-07-02T05:29:37;15.50;99.90
66328;DHT22;53133;52.862;6.602;2023-07-02T05:32:03;15.60;99.90
66328;DHT22;53133;52.862;6.602;2023-07-02T05:34:29;15.60;99.90
66328;DHT22;53133;52.862;6.602;2023-07-02T05:36:54;15.70;99.90
66328;DHT22;53133;52.862;6.602;2023-07-02T05:39:20;15.70;99.90
66328;DHT22;53133;52.862;6.602;2023-07-02T05:41:47;15.70;99.90
66328;DHT22;53133;52.862;6.602;2023-07-02T05:44:12;15.80;99.90
66328;DHT22;53133;52.862;6.602;2023-07-02T05:46:38;15.90;99.90
66328;DHT22;53133;52.862;6.602;2023-07-02T05:49:05;15.90;99.90
66328;DHT22;53133;52.862;6.602;2023-07-02T05:51:31;15.90;99.90
66328;DHT22;53133;52.862;6.602;2023-07-02T05:53:57;16.00;99.90
66328;DHT22;53133;52.862;6.602;2023-07-02T05:56:22;16.00;99.90
66328;DHT22;53133;52.862;6.602;2023-07-02T05:58:48;16.00;99.90
66328;DHT22;53133;52.862;6.602;2023-07-02T06:01:15;16.10;99.90
66328;DHT22;53133;52.862;6.602;2023-07-02T06:03:40;16.10;99.90
66328;DHT22;53133;52.862;6.602;2023-07-02T06:06:07;16.10;99.90
66328;DHT22;53133;52.862;6.602;2023-07-02T06:08:34;16.20;99.90
66328;DHT22;53133;52.862;6.602;2023-07-02T06:10:59;16.20;99.90
66328;DHT22;53133;52.862;6.602;2023-07-02T06:13:25;16.20;99.90
66328;DHT22;53133;52.862;6.602;2023-07-02T06:15:51;16.30;99.90
66328;DHT22;53133;52.862;6.602;2023-07-02T06:18:17;16.20;99.90
66328;DHT22;53133;52.862;6.602;2023-07-02T06:20:43;16.30;99.90
66328;DHT22;53133;52.862;6.602;2023-07-02T06:23:08;16.40;99.90
66328;DHT22;53133;52.862;6.602;2023-07-02T06:25:34;16.40;99.90
66328;DHT22;53133;52.862;6.602;2023-07-02T06:28:00;16.40;99.90
66328;DHT22;53133;52.862;6.602;2023-07-02T06:30:25;16.40;99.90
66328;DHT22;53133;52.862;6.602;2023-07-02T06:32:51;16.40;99.90
66328;DHT22;53133;52.862;6.602;2023-07-02T06:35:17;16.40;99.90
66328;DHT22;53133;52.862;6.602;2023-07-02T06:37:43;16.40;99.90
66328;DHT22;53133;52.862;6.602;2023-07-02T06:40:09;16.40;99.90
66328;DHT22;53133;52.862;6.602;2023-07-02T06:42:35;16.40;99.90
66328;DHT22;53133;52.862;6.602;2023-07-02T06:45:02;16.40;99.90
66328;DHT22;53133;52.862;6.602;2023-07-02T06:47:28;16.40;99.90
66328;DHT22;53133;52.862;6.602;2023-07-02T06:49:53;16.40;99.90
66328;DHT22;53133;52.862;6.602;2023-07-02T06:52:19;16.50;99.90
66328;DHT22;53133;52.862;6.602;2023-07-02T06:54:45;16.60;99.90
66328;DHT22;53133;52.862;6.602;2023-07-02T06:57:10;16.60;99.90
66328;DHT22;53133;52.862;6.602;2023-07-02T06:59:36;16.70;99.90
66328;DHT22;53133;52.862;6.602;2023-07-02T07:02:02;16.70;99.90
66328;DHT22;53133;52.862;6.602;2023-07-02T07:04:28;16.70;99.90
66328;DHT22;53133;52.862;6.602;2023-07-02T07:06:56;16.70;99.90
66328;DHT22;53133;52.862;6.602;2023-07-02T07:09:22;16.70;99.90
66328;DHT22;53133;52.862;6.602;2023-07-02T07:11:48;16.70;99.90
66328;DHT22;53133;52.862;6.602;2023-07-02T07:14:14;16.70;99.90
66328;DHT22;53133;52.862;6.602;2023-07-02T07:16:39;16.70;99.90
66328;DHT22;53133;52.862;6.602;2023-07-02T07:19:05;16.60;99.90
66328;DHT22;53133;52.862;6.602;2023-07-02T07:21:31;16.60;99.90
66328;DHT22;53133;52.862;6.602;2023-07-02T07:23:56;16.60;99.90
66328;DHT22;53133;52.862;6.602;2023-07-02T07:26:22;16.60;99.90
66328;DHT22;53133;52.862;6.602;2023-07-02T07:28:50;16.60;99.90
66328;DHT22;53133;52.862;6.602;2023-07-02T07:31:16;16.60;99.90
66328;DHT22;53133;52.862;6.602;2023-07-02T07:33:42;16.70;99.90
66328;DHT22;53133;52.862;6.602;2023-07-02T07:36:07;16.80;99.90
66328;DHT22;53133;52.862;6.602;2023-07-02T07:38:33;16.90;99.90
66328;DHT22;53133;52.862;6.602;2023-07-02T07:40:58;16.90;99.90
66328;DHT22;53133;52.862;6.602;2023-07-02T07:43:24;17.00;99.90
66328;DHT22;53133;52.862;6.602;2023-07-02T07:45:50;17.00;99.90
66328;DHT22;53133;52.862;6.602;2023-07-02T07:48:15;17.00;99.90
66328;DHT22;53133;52.862;6.602;2023-07-02T07:50:41;17.00;99.90
66328;DHT22;53133;52.862;6.602;2023-07-02T07:53:06;17.00;99.90
66328;DHT22;53133;52.862;6.602;2023-07-02T07:55:32;17.00;99.90
66328;DHT22;53133;52.862;6.602;2023-07-02T07:57:58;17.00;99.90
66328;DHT22;53133;52.862;6.602;2023-07-02T08:00:23;17.00;99.90
66328;DHT22;53133;52.862;6.602;2023-07-02T08:02:50;17.00;99.90
66328;DHT22;53133;52.862;6.602;2023-07-02T08:05:17;17.10;99.90
66328;DHT22;53133;52.862;6.602;2023-07-02T08:07:43;17.00;99.90
66328;DHT22;53133;52.862;6.602;2023-07-02T08:10:09;17.00;99.90
66328;DHT22;53133;52.862;6.602;2023-07-02T08:12:35;17.00;99.90
66328;DHT22;53133;52.862;6.602;2023-07-02T08:15:01;17.10;99.90
66328;DHT22;53133;52.862;6.602;2023-07-02T08:17:30;17.20;99.90
66328;DHT22;53133;52.862;6.602;2023-07-02T08:19:59;17.20;99.90
66328;DHT22;53133;52.862;6.602;2023-07-02T08:22:25;17.20;99.90
66328;DHT22;53133;52.862;6.602;2023-07-02T08:24:53;17.20;99.90
66328;DHT22;53133;52.862;6.602;2023-07-02T08:27:20;17.20;99.90
66328;DHT22;53133;52.862;6.602;2023-07-02T08:29:46;17.20;99.90
66328;DHT22;53133;52.862;6.602;2023-07-02T08:32:12;17.20;99.90
66328;DHT22;53133;52.862;6.602;2023-07-02T08:34:38;17.20;99.90
66328;DHT22;53133;52.862;6.602;2023-07-02T08:37:03;17.30;99.90
66328;DHT22;53133;52.862;6.602;2023-07-02T08:39:29;17.30;99.90
66328;DHT22;53133;52.862;6.602;2023-07-02T08:41:55;17.30;99.90
66328;DHT22;53133;52.862;6.602;2023-07-02T08:44:21;17.30;99.90
66328;DHT22;53133;52.862;6.602;2023-07-02T08:46:47;17.30;99.90
66328;DHT22;53133;52.862;6.602;2023-07-02T08:49:16;17.30;99.90
66328;DHT22;53133;52.862;6.602;2023-07-02T08:51:45;17.30;99.90
66328;DHT22;53133;52.862;6.602;2023-07-02T08:54:11;17.30;99.90
66328;DHT22;53133;52.862;6.602;2023-07-02T08:56:36;17.30;99.90
66328;DHT22;53133;52.862;6.602;2023-07-02T08:59:03;17.30;99.90
66328;DHT22;53133;52.862;6.602;2023-07-02T09:01:28;17.20;99.90
66328;DHT22;53133;52.862;6.602;2023-07-02T09:03:59;17.20;99.90
66328;DHT22;53133;52.862;6.602;2023-07-02T09:06:26;17.20;99.90
66328;DHT22;53133;52.862;6.602;2023-07-02T09:08:51;17.20;99.90
66328;DHT22;53133;52.862;6.602;2023-07-02T09:11:17;17.20;99.90
66328;DHT22;53133;52.862;6.602;2023-07-02T09:13:49;17.20;99.90
66328;DHT22;53133;52.862;6.602;2023-07-02T09:16:22;17.30;99.90
66328;DHT22;53133;52.862;6.602;2023-07-02T09:19:08;17.30;99.90
66328;DHT22;53133;52.862;6.602;2023-07-02T09:21:44;17.40;99.90
66328;DHT22;53133;52.862;6.602;2023-07-02T09:24:23;17.40;99.90
66328;DHT22;53133;52.862;6.602;2023-07-02T09:26:53;17.40;99.90
66328;DHT22;53133;52.862;6.602;2023-07-02T09:29:21;17.50;99.90
66328;DHT22;53133;52.862;6.602;2023-07-02T09:31:48;17.60;99.90
66328;DHT22;53133;52.862;6.602;2023-07-02T09:34:14;17.60;99.90
66328;DHT22;53133;52.862;6.602;2023-07-02T09:36:40;17.70;99.90
66328;DHT22;53133;52.862;6.602;2023-07-02T09:39:19;17.70;99.90
66328;DHT22;53133;52.862;6.602;2023-07-02T09:41:50;17.80;99.90
66328;DHT22;53133;52.862;6.602;2023-07-02T09:44:17;17.80;99.90
66328;DHT22;53133;52.862;6.602;2023-07-02T09:47:03;17.90;99.90
66328;DHT22;53133;52.862;6.602;2023-07-02T09:49:37;18.00;99.90
66328;DHT22;53133;52.862;6.602;2023-07-02T09:52:14;18.10;99.90
66328;DHT22;53133;52.862;6.602;2023-07-02T09:54:41;18.20;99.90
66328;DHT22;53133;52.862;6.602;2023-07-02T09:57:07;18.20;99.90
66328;DHT22;53133;52.862;6.602;2023-07-02T09:59:33;18.20;99.90
66328;DHT22;53133;52.862;6.602;2023-07-02T10:01:58;18.20;99.90
66328;DHT22;53133;52.862;6.602;2023-07-02T10:04:24;18.20;99.90
66328;DHT22;53133;52.862;6.602;2023-07-02T10:06:52;18.20;99.90
66328;DHT22;53133;52.862;6.602;2023-07-02T10:09:25;18.20;99.90
66328;DHT22;53133;52.862;6.602;2023-07-02T10:11:59;18.20;99.90
66328;DHT22;53133;52.862;6.602;2023-07-02T10:14:25;18.30;99.90
66328;DHT22;53133;52.862;6.602;2023-07-02T10:16:54;18.30;99.90
66328;DHT22;53133;52.862;6.602;2023-07-02T10:19:20;18.30;99.90
66328;DHT22;53133;52.862;6.602;2023-07-02T10:21:47;18.30;99.90
66328;DHT22;53133;52.862;6.602;2023-07-02T10:24:17;18.30;99.90
66328;DHT22;53133;52.862;6.602;2023-07-02T10:26:56;18.20;99.90
66328;DHT22;53133;52.862;6.602;2023-07-02T10:29:26;18.20;99.90
66328;DHT22;53133;52.862;6.602;2023-07-02T10:31:56;18.20;99.90
66328;DHT22;53133;52.862;6.602;2023-07-02T10:34:30;18.20;99.90
66328;DHT22;53133;52.862;6.602;2023-07-02T10:36:56;18.10;99.90
66328;DHT22;53133;52.862;6.602;2023-07-02T10:39:22;18.10;99.90
66328;DHT22;53133;52.862;6.602;2023-07-02T10:41:48;18.10;99.90
66328;DHT22;53133;52.862;6.602;2023-07-02T10:44:14;18.20;99.90
66328;DHT22;53133;52.862;6.602;2023-07-02T10:46:47;18.20;99.90
66328;DHT22;53133;52.862;6.602;2023-07-02T10:49:16;18.20;99.90
66328;DHT22;53133;52.862;6.602;2023-07-02T10:51:42;18.20;99.90
66328;DHT22;53133;52.862;6.602;2023-07-02T10:54:08;18.20;99.90
66328;DHT22;53133;52.862;6.602;2023-07-02T10:56:35;18.20;99.90
66328;DHT22;53133;52.862;6.602;2023-07-02T10:59:00;18.20;99.90
66328;DHT22;53133;52.862;6.602;2023-07-02T11:01:31;18.20;99.90
66328;DHT22;53133;52.862;6.602;2023-07-02T11:04:02;18.30;99.90
66328;DHT22;53133;52.862;6.602;2023-07-02T11:06:28;18.30;99.90
66328;DHT22;53133;52.862;6.602;2023-07-02T11:08:54;18.30;99.90
66328;DHT22;53133;52.862;6.602;2023-07-02T11:11:21;18.30;99.90
66328;DHT22;53133;52.862;6.602;2023-07-02T11:13:49;18.40;99.90
66328;DHT22;53133;52.862;6.602;2023-07-02T11:16:28;18.40;99.90
66328;DHT22;53133;52.862;6.602;2023-07-02T11:19:08;18.40;99.90
66328;DHT22;53133;52.862;6.602;2023-07-02T11:21:34;18.30;99.90
66328;DHT22;53133;52.862;6.602;2023-07-02T11:24:05;18.30;99.90
66328;DHT22;53133;52.862;6.602;2023-07-02T11:26:36;18.30;99.90
66328;DHT22;53133;52.862;6.602;2023-07-02T11:29:02;18.40;99.90
66328;DHT22;53133;52.862;6.602;2023-07-02T11:31:27;18.40;99.90
66328;DHT22;53133;52.862;6.602;2023-07-02T11:33:54;18.40;99.90
66328;DHT22;53133;52.862;6.602;2023-07-02T11:36:23;18.40;99.90
66328;DHT22;53133;52.862;6.602;2023-07-02T11:38:55;18.40;99.90
66328;DHT22;53133;52.862;6.602;2023-07-02T11:41:21;18.40;99.90
66328;DHT22;53133;52.862;6.602;2023-07-02T11:43:47;18.40;99.90
66328;DHT22;53133;52.862;6.602;2023-07-02T11:46:13;18.50;99.90
66328;DHT22;53133;52.862;6.602;2023-07-02T11:48:39;18.60;99.90
66328;DHT22;53133;52.862;6.602;2023-07-02T11:51:04;18.60;99.90
66328;DHT22;53133;52.862;6.602;2023-07-02T11:53:30;18.60;99.90
66328;DHT22;53133;52.862;6.602;2023-07-02T11:55:55;18.70;99.90
66328;DHT22;53133;52.862;6.602;2023-07-02T11:58:21;18.70;99.90
66328;DHT22;53133;52.862;6.602;2023-07-02T12:00:47;18.80;99.90
66328;DHT22;53133;52.862;6.602;2023-07-02T12:03:12;18.80;99.90
66328;DHT22;53133;52.862;6.602;2023-07-02T12:05:38;18.80;99.90
66328;DHT22;53133;52.862;6.602;2023-07-02T12:08:04;18.80;99.90
66328;DHT22;53133;52.862;6.602;2023-07-02T12:10:29;18.70;99.90
66328;DHT22;53133;52.862;6.602;2023-07-02T12:12:55;18.60;99.90
66328;DHT22;53133;52.862;6.602;2023-07-02T12:15:20;18.60;99.90
66328;DHT22;53133;52.862;6.602;2023-07-02T12:17:46;18.60;99.90
66328;DHT22;53133;52.862;6.602;2023-07-02T12:20:12;18.60;99.90
66328;DHT22;53133;52.862;6.602;2023-07-02T12:22:38;18.60;99.90
66328;DHT22;53133;52.862;6.602;2023-07-02T12:25:04;18.70;99.90
66328;DHT22;53133;52.862;6.602;2023-07-02T12:27:30;18.80;99.90
66328;DHT22;53133;52.862;6.602;2023-07-02T12:29:56;18.90;99.90
66328;DHT22;53133;52.862;6.602;2023-07-02T12:32:21;19.00;99.90
66328;DHT22;53133;52.862;6.602;2023-07-02T12:34:47;19.10;99.90
66328;DHT22;53133;52.862;6.602;2023-07-02T12:37:13;19.20;99.90
66328;DHT22;53133;52.862;6.602;2023-07-02T12:39:42;19.10;99.90
66328;DHT22;53133;52.862;6.602;2023-07-02T12:42:08;19.10;99.90
66328;DHT22;53133;52.862;6.602;2023-07-02T12:44:33;19.10;99.90
66328;DHT22;53133;52.862;6.602;2023-07-02T12:46:59;19.00;99.90
66328;DHT22;53133;52.862;6.602;2023-07-02T12:49:25;19.00;99.90
66328;DHT22;53133;52.862;6.602;2023-07-02T12:51:50;19.00;99.90
66328;DHT22;53133;52.862;6.602;2023-07-02T12:54:16;18.90;99.90
66328;DHT22;53133;52.862;6.602;2023-07-02T12:56:41;18.80;99.90
66328;DHT22;53133;52.862;6.602;2023-07-02T12:59:07;18.80;99.90
66328;DHT22;53133;52.862;6.602;2023-07-02T13:01:33;18.70;99.90
66328;DHT22;53133;52.862;6.602;2023-07-02T13:03:58;18.70;99.90
66328;DHT22;53133;52.862;6.602;2023-07-02T13:06:24;18.60;99.90
66328;DHT22;53133;52.862;6.602;2023-07-02T13:08:50;18.60;99.90
66328;DHT22;53133;52.862;6.602;2023-07-02T13:11:16;18.60;99.90
66328;DHT22;53133;52.862;6.602;2023-07-02T13:13:41;18.50;99.90
66328;DHT22;53133;52.862;6.602;2023-07-02T13:16:07;18.50;99.90
66328;DHT22;53133;52.862;6.602;2023-07-02T13:18:33;18.60;99.90
66328;DHT22;53133;52.862;6.602;2023-07-02T13:20:59;18.60;99.90
66328;DHT22;53133;52.862;6.602;2023-07-02T13:23:24;18.60;99.90
66328;DHT22;53133;52.862;6.602;2023-07-02T13:25:50;18.70;99.90
66328;DHT22;53133;52.862;6.602;2023-07-02T13:28:15;18.80;99.90
66328;DHT22;53133;52.862;6.602;2023-07-02T13:30:42;18.80;99.90
66328;DHT22;53133;52.862;6.602;2023-07-02T13:33:07;18.90;99.90
66328;DHT22;53133;52.862;6.602;2023-07-02T13:35:33;19.00;99.90
66328;DHT22;53133;52.862;6.602;2023-07-02T13:37:58;19.00;99.90
66328;DHT22;53133;52.862;6.602;2023-07-02T13:40:25;19.10;99.60
66328;DHT22;53133;52.862;6.602;2023-07-02T13:42:51;19.20;99.90
66328;DHT22;53133;52.862;6.602;2023-07-02T13:45:16;19.30;99.90
66328;DHT22;53133;52.862;6.602;2023-07-02T13:47:42;19.40;99.80
66328;DHT22;53133;52.862;6.602;2023-07-02T13:50:08;19.50;99.20
66328;DHT22;53133;52.862;6.602;2023-07-02T13:52:33;19.50;99.50
66328;DHT22;53133;52.862;6.602;2023-07-02T13:54:59;19.60;97.80
66328;DHT22;53133;52.862;6.602;2023-07-02T13:57:24;19.60;97.20
66328;DHT22;53133;52.862;6.602;2023-07-02T13:59:50;19.70;96.60
66328;DHT22;53133;52.862;6.602;2023-07-02T14:02:16;19.80;95.40
66328;DHT22;53133;52.862;6.602;2023-07-02T14:04:42;19.80;94.40
66328;DHT22;53133;52.862;6.602;2023-07-02T14:07:07;19.90;93.10
66328;DHT22;53133;52.862;6.602;2023-07-02T14:09:33;19.80;93.00
66328;DHT22;53133;52.862;6.602;2023-07-02T14:11:59;19.90;93.10
66328;DHT22;53133;52.862;6.602;2023-07-02T14:14:24;20.00;93.30
66328;DHT22;53133;52.862;6.602;2023-07-02T14:16:50;20.00;93.60
66328;DHT22;53133;52.862;6.602;2023-07-02T14:19:15;20.00;92.90
66328;DHT22;53133;52.862;6.602;2023-07-02T14:21:42;19.90;93.10
66328;DHT22;53133;52.862;6.602;2023-07-02T14:24:08;19.80;93.80
66328;DHT22;53133;52.862;6.602;2023-07-02T14:26:34;19.90;94.40
66328;DHT22;53133;52.862;6.602;2023-07-02T14:29:00;20.00;95.40
66328;DHT22;53133;52.862;6.602;2023-07-02T14:31:25;20.00;94.40
66328;DHT22;53133;52.862;6.602;2023-07-02T14:33:51;20.00;93.20
66328;DHT22;53133;52.862;6.602;2023-07-02T14:36:17;20.00;92.60
66328;DHT22;53133;52.862;6.602;2023-07-02T14:38:42;19.90;92.10
66328;DHT22;53133;52.862;6.602;2023-07-02T14:41:08;20.00;91.30
66328;DHT22;53133;52.862;6.602;2023-07-02T14:43:33;20.00;91.90
66328;DHT22;53133;52.862;6.602;2023-07-02T14:46:01;20.10;91.70
66328;DHT22;53133;52.862;6.602;2023-07-02T14:48:27;20.10;90.00
66328;DHT22;53133;52.862;6.602;2023-07-02T14:51:00;20.10;90.30
66328;DHT22;53133;52.862;6.602;2023-07-02T14:53:28;20.10;87.00
66328;DHT22;53133;52.862;6.602;2023-07-02T14:55:55;20.10;88.50
66328;DHT22;53133;52.862;6.602;2023-07-02T14:58:22;20.10;88.50
66328;DHT22;53133;52.862;6.602;2023-07-02T15:00:50;20.10;87.90
66328;DHT22;53133;52.862;6.602;2023-07-02T15:03:16;20.10;87.70
66328;DHT22;53133;52.862;6.602;2023-07-02T15:05:43;20.00;87.30
66328;DHT22;53133;52.862;6.602;2023-07-02T15:08:09;19.80;86.40
66328;DHT22;53133;52.862;6.602;2023-07-02T15:10:35;19.80;85.10
66328;DHT22;53133;52.862;6.602;2023-07-02T15:13:07;19.70;88.90
66328;DHT22;53133;52.862;6.602;2023-07-02T15:15:33;19.60;90.00
66328;DHT22;53133;52.862;6.602;2023-07-02T15:17:59;19.60;90.00
66328;DHT22;53133;52.862;6.602;2023-07-02T15:20:25;19.60;90.70
66328;DHT22;53133;52.862;6.602;2023-07-02T15:22:51;19.60;90.70
66328;DHT22;53133;52.862;6.602;2023-07-02T15:25:16;19.60;91.50
66328;DHT22;53133;52.862;6.602;2023-07-02T15:27:42;19.60;90.60
66328;DHT22;53133;52.862;6.602;2023-07-02T15:30:08;19.60;90.80